Historyczne dane pomiarowe

Dodano dane terminowe – wersja testowa.

Dane z okresu 1951-2019

Wersja bazy: 1.34 [2019-03-16, lista zmian], aktualizacja planowana na 2019-04-15

Dane meteo z obszaru Polski uzyskane na podstawie danych udostępnionych przez Instytut Meteorologii i Gospodarki Wodnej – Państwowy Instytut Badawczy.

 

Wybierz Datę:    

       

TemperaturaWilgotnośćWiatrCiśnienieOpadyŚniegCzas trwania zjawisk
 Stacja t tx tn tng RH VA  wxwx mslp ppp RRR   cm mm wxwxwxwxwxwxwx
1983-08-14 13.9 18.9 10.0- 80.3- 4.3 3.3---- 0.0------------
1983-08-13 15.2 22.3 12.8- 80.3- 6.0 4.7---- 7.6------------
1983-08-12 20.7 25.6 15.9- 63.8- 0.3 2.0---- 11.5------------
1983-08-11 20.6 27.5 12.8- 74.8- 0.7 0.7---- 0.0------------
1983-08-10 21.0 26.2 14.3- 75.3- 0.3 1.7---- 0.0------------
1983-08-09 19.9 26.5 13.8- 86.0- 1.0 0.7---- 6.8------------
1983-08-08 18.7 25.5 15.1- 91.3- 6.3 1.7---- 2.4------------
1983-08-07 16.7 21.6 13.3- 95.3- 6.0 1.0---- 2.0------------
1983-08-06 16.1 21.5 12.4- 78.3- 4.7 1.0---- 0.0------------
1983-08-05 14.0 17.8 10.3- 76.3- 4.7 2.3---- 0.0------------
1983-08-04 12.2 14.0 11.0- 99.8- 8.0 2.3---- 2.6------------
1983-08-03 15.2 19.5 13.3- 99.0- 8.0 2.0---- 8.7------------
1983-08-02 21.6 28.0 19.3- 78.0- 3.3 3.0---- 0.8------------
1983-08-01 23.0 33.0 12.6- 48.0- 0.3 4.0---- 0.0------------
1983-07-31 19.1 27.1 8.9- 56.0- 0.3 1.3---- 0.0------------
1983-07-30 18.0 22.2 14.7- 68.5- 4.3 4.0---- 0.0------------
1983-07-29 18.8 24.2 13.7- 69.0- 2.7 2.3---- 2.5------------
1983-07-28 24.2 31.4 18.8- 54.5- 2.0 2.0---- 0.0------------
1983-07-27 25.4 32.4 12.7- 48.3- 0.7 0.7---- 0.0------------
1983-07-26 21.6 28.9 11.4- 48.0- 0.0 0.7---- 0.0------------
1983-07-25 16.8 25.0 7.0- 65.5- 0.7 1.0---- 0.0------------
1983-07-24 17.1 23.2 13.7- 74.5- 4.0 2.0---- 0.0------------
1983-07-23 19.0 24.2 11.7- 66.0- 4.7 2.0---- 0.0------------
1983-07-22 13.0 16.6 9.7- 88.5- 7.0 2.0---- 0.8------------
1983-07-21 13.9 18.2 8.7- 58.3- 3.7 3.3---- 0.0------------
1983-07-20 15.2 23.2 10.7- 74.8- 6.0 3.0---- 1.2------------
1983-07-19 22.1 29.4 17.8- 71.0- 5.7 3.3---- 5.0------------
1983-07-18 25.0 31.9 14.9- 55.5- 1.0 1.7---- 0.0------------
1983-07-17 20.4 26.3 13.9- 63.8- 2.3 1.0---- 0.0------------
1983-07-16 19.5 27.1 16.0- 84.0- 1.0 2.7---- 9.6------------
1983-07-15 20.9 26.9 12.5- 58.0- 1.0 2.7---- 0.0------------
1983-07-14 20.6 23.4 16.8- 79.3- 6.7 2.7---- 0.0------------
1983-07-13 20.8 25.5 16.6- 78.3- 2.0 2.7---- 0.0------------
1983-07-12 21.8 29.3 17.8- 69.3- 3.7 2.7---- 20.8------------
1983-07-11 22.8 28.9 15.8- 63.5- 3.3 2.0---- 3.4------------
1983-07-10 23.8 30.3 15.2- 53.3- 1.3 1.3---- 0.0------------
1983-07-09 22.2 27.7 13.3- 58.0- 1.3 1.3---- 0.0------------
1983-07-08 20.6 27.3 12.9- 51.5- 0.0 1.0---- 0.0------------
1983-07-07 22.8 28.4 16.8- 55.5- 0.0 1.7---- 0.0------------
1983-07-06 23.4 29.9 13.3- 55.3- 0.0 3.0---- 0.0------------
1983-07-05 19.4 26.1 11.7- 60.5- 0.0 1.3---- 0.0------------
1983-07-04 20.8 27.1 12.1- 61.0- 0.7 1.7---- 0.0------------
1983-07-03 20.2 25.5 11.3- 58.3- 0.0 0.3---- 0.0------------
1983-07-02 18.0 22.0 12.3- 66.0- 0.3 1.3---- 0.0------------
1983-07-01 20.6 25.9 16.2- 61.8- 2.3 2.7---- 0.0------------
1983-06-30 20.2 24.2 13.7- 58.0- 1.7 1.3---- 0.8------------
1983-06-29 14.6 20.4 7.8- 63.0- 3.3 2.0---- 0.0------------
1983-06-28 15.9 22.0 13.9- 69.8- 6.7 2.3---- 0.0------------
1983-06-27 20.0 23.6 16.8- 83.8- 4.7 1.7---- 5.6------------
1983-06-26 20.9 26.1 13.7- 59.5- 0.7 1.7---- 0.2------------
1983-06-25 21.8 30.1 15.4- 61.0- 1.3 2.0---- 0.0------------
1983-06-24 20.3 29.3 9.3- 54.0- 0.0 1.3---- 0.0------------
1983-06-23 17.4 23.6 6.2- 48.8- 0.3 2.3---- 0.0------------
1983-06-22 15.6 21.8 8.2- 53.3- 0.0 1.7---- 0.0------------
1983-06-21 19.7 25.4 11.9- 60.5- 0.7 3.7---- 0.0------------
1983-06-20 18.6 24.8 12.1- 58.0- 0.0 2.3---- 0.0------------
1983-06-19 15.4 20.5 12.3- 75.0- 3.0 2.7---- 0.0------------
1983-06-18 12.8 15.4 10.5- 84.0- 5.0 2.0---- 0.0------------
1983-06-17 12.5 16.0 9.4- 68.5- 2.3 3.3---- 0.9------------
1983-06-16 13.1 17.2 10.1- 65.0- 2.7 2.3---- 0.0------------
2266.3 ms

 

Źródłem pochodzenia danych jest Instytut Meteorologii i Gospodarki Wodnej – Państwowy Instytut Badawczy. Dane Instytutu Meteorologii i Gospodarki Wodnej – Państwowego Instytutu Badawczego zostały przetworzone.

Dane źródłowe można odnaleźć na stronie https://dane.imgw.pl